sensor_id;sensor_type;location;lat;lon;timestamp;P1;durP1;ratioP1;P2;durP2;ratioP2
16624;SDS011;8426;48.496;9.098;2023-01-19T00:00:32;12.83;;;6.70;;
16624;SDS011;8426;48.496;9.098;2023-01-19T00:05:37;14.17;;;7.07;;
16624;SDS011;8426;48.496;9.098;2023-01-19T00:10:41;13.53;;;6.53;;
16624;SDS011;8426;48.496;9.098;2023-01-19T00:15:45;14.20;;;6.53;;
16624;SDS011;8426;48.496;9.098;2023-01-19T00:20:50;13.47;;;6.47;;
16624;SDS011;8426;48.496;9.098;2023-01-19T00:25:53;15.83;;;6.17;;
16624;SDS011;8426;48.496;9.098;2023-01-19T00:30:56;14.07;;;6.00;;
16624;SDS011;8426;48.496;9.098;2023-01-19T00:36:01;13.23;;;6.33;;
16624;SDS011;8426;48.496;9.098;2023-01-19T00:41:05;14.27;;;7.07;;
16624;SDS011;8426;48.496;9.098;2023-01-19T00:46:09;10.10;;;5.57;;
16624;SDS011;8426;48.496;9.098;2023-01-19T00:51:14;12.87;;;6.30;;
16624;SDS011;8426;48.496;9.098;2023-01-19T00:56:18;12.77;;;7.13;;
16624;SDS011;8426;48.496;9.098;2023-01-19T01:01:21;11.93;;;6.10;;
16624;SDS011;8426;48.496;9.098;2023-01-19T01:06:46;22.40;;;6.77;;
16624;SDS011;8426;48.496;9.098;2023-01-19T01:11:50;14.13;;;5.97;;
16624;SDS011;8426;48.496;9.098;2023-01-19T01:16:54;12.47;;;5.57;;
16624;SDS011;8426;48.496;9.098;2023-01-19T01:21:59;13.67;;;5.57;;
16624;SDS011;8426;48.496;9.098;2023-01-19T01:27:04;18.20;;;5.33;;
16624;SDS011;8426;48.496;9.098;2023-01-19T01:32:07;11.27;;;4.93;;
16624;SDS011;8426;48.496;9.098;2023-01-19T01:37:12;11.70;;;5.80;;
16624;SDS011;8426;48.496;9.098;2023-01-19T01:47:27;10.07;;;5.40;;
16624;SDS011;8426;48.496;9.098;2023-01-19T01:52:42;10.13;;;5.70;;
16624;SDS011;8426;48.496;9.098;2023-01-19T01:58:09;9.63;;;5.00;;
16624;SDS011;8426;48.496;9.098;2023-01-19T02:03:15;11.27;;;5.67;;
16624;SDS011;8426;48.496;9.098;2023-01-19T02:08:26;9.27;;;5.07;;
16624;SDS011;8426;48.496;9.098;2023-01-19T02:13:50;11.23;;;5.33;;
16624;SDS011;8426;48.496;9.098;2023-01-19T02:18:55;12.90;;;5.57;;
16624;SDS011;8426;48.496;9.098;2023-01-19T02:24:01;8.87;;;5.10;;
16624;SDS011;8426;48.496;9.098;2023-01-19T02:29:07;10.77;;;5.23;;
16624;SDS011;8426;48.496;9.098;2023-01-19T02:34:13;13.03;;;5.63;;
16624;SDS011;8426;48.496;9.098;2023-01-19T02:39:20;8.23;;;4.37;;
16624;SDS011;8426;48.496;9.098;2023-01-19T02:44:28;10.03;;;5.23;;
16624;SDS011;8426;48.496;9.098;2023-01-19T02:49:32;11.37;;;5.03;;
16624;SDS011;8426;48.496;9.098;2023-01-19T02:54:41;11.77;;;5.10;;
16624;SDS011;8426;48.496;9.098;2023-01-19T02:59:55;8.83;;;4.70;;
16624;SDS011;8426;48.496;9.098;2023-01-19T03:10:41;9.37;;;4.93;;
16624;SDS011;8426;48.496;9.098;2023-01-19T03:15:53;11.63;;;5.47;;
16624;SDS011;8426;48.496;9.098;2023-01-19T03:21:00;11.80;;;5.30;;
16624;SDS011;8426;48.496;9.098;2023-01-19T03:26:11;10.87;;;5.60;;
16624;SDS011;8426;48.496;9.098;2023-01-19T03:31:19;13.07;;;6.30;;
16624;SDS011;8426;48.496;9.098;2023-01-19T03:36:28;14.13;;;5.73;;
16624;SDS011;8426;48.496;9.098;2023-01-19T03:41:35;15.43;;;6.33;;
16624;SDS011;8426;48.496;9.098;2023-01-19T03:46:40;14.90;;;6.23;;
16624;SDS011;8426;48.496;9.098;2023-01-19T03:51:46;14.03;;;6.17;;
16624;SDS011;8426;48.496;9.098;2023-01-19T03:56:52;10.93;;;5.70;;
16624;SDS011;8426;48.496;9.098;2023-01-19T04:01:55;17.87;;;6.63;;
16624;SDS011;8426;48.496;9.098;2023-01-19T04:06:58;14.13;;;6.07;;
16624;SDS011;8426;48.496;9.098;2023-01-19T04:12:03;12.73;;;5.87;;
16624;SDS011;8426;48.496;9.098;2023-01-19T04:17:06;11.37;;;5.40;;
16624;SDS011;8426;48.496;9.098;2023-01-19T04:22:11;10.83;;;5.23;;
16624;SDS011;8426;48.496;9.098;2023-01-19T04:27:16;9.07;;;5.33;;
16624;SDS011;8426;48.496;9.098;2023-01-19T04:32:19;10.33;;;4.93;;
16624;SDS011;8426;48.496;9.098;2023-01-19T04:37:23;11.30;;;5.70;;
16624;SDS011;8426;48.496;9.098;2023-01-19T04:42:27;13.83;;;5.10;;
16624;SDS011;8426;48.496;9.098;2023-01-19T04:47:31;13.70;;;6.30;;
16624;SDS011;8426;48.496;9.098;2023-01-19T04:52:34;9.73;;;5.43;;
16624;SDS011;8426;48.496;9.098;2023-01-19T04:57:39;10.33;;;5.40;;
16624;SDS011;8426;48.496;9.098;2023-01-19T05:02:43;13.33;;;6.43;;
16624;SDS011;8426;48.496;9.098;2023-01-19T05:07:47;11.10;;;5.87;;
16624;SDS011;8426;48.496;9.098;2023-01-19T05:12:52;11.70;;;4.97;;
16624;SDS011;8426;48.496;9.098;2023-01-19T05:17:57;12.13;;;6.40;;
16624;SDS011;8426;48.496;9.098;2023-01-19T05:23:01;11.27;;;5.90;;
16624;SDS011;8426;48.496;9.098;2023-01-19T05:28:07;11.03;;;5.83;;
16624;SDS011;8426;48.496;9.098;2023-01-19T05:33:10;12.23;;;6.47;;
16624;SDS011;8426;48.496;9.098;2023-01-19T05:38:14;15.17;;;6.43;;
16624;SDS011;8426;48.496;9.098;2023-01-19T05:43:31;12.83;;;6.93;;
16624;SDS011;8426;48.496;9.098;2023-01-19T05:48:35;13.17;;;6.17;;
16624;SDS011;8426;48.496;9.098;2023-01-19T05:53:38;14.67;;;6.63;;
16624;SDS011;8426;48.496;9.098;2023-01-19T05:58:44;14.23;;;6.70;;
16624;SDS011;8426;48.496;9.098;2023-01-19T06:03:48;13.00;;;6.10;;
16624;SDS011;8426;48.496;9.098;2023-01-19T06:08:51;22.63;;;9.13;;
16624;SDS011;8426;48.496;9.098;2023-01-19T06:13:56;11.50;;;5.67;;
16624;SDS011;8426;48.496;9.098;2023-01-19T06:19:00;14.03;;;6.13;;
16624;SDS011;8426;48.496;9.098;2023-01-19T06:24:04;11.73;;;4.93;;
16624;SDS011;8426;48.496;9.098;2023-01-19T06:29:09;14.47;;;6.30;;
16624;SDS011;8426;48.496;9.098;2023-01-19T06:34:13;10.07;;;5.80;;
16624;SDS011;8426;48.496;9.098;2023-01-19T06:39:16;10.73;;;6.00;;
16624;SDS011;8426;48.496;9.098;2023-01-19T06:44:21;13.40;;;5.17;;
16624;SDS011;8426;48.496;9.098;2023-01-19T06:49:24;9.93;;;5.27;;
16624;SDS011;8426;48.496;9.098;2023-01-19T06:54:28;14.07;;;6.67;;
16624;SDS011;8426;48.496;9.098;2023-01-19T06:59:32;12.70;;;5.80;;
16624;SDS011;8426;48.496;9.098;2023-01-19T07:04:36;12.73;;;6.33;;
16624;SDS011;8426;48.496;9.098;2023-01-19T07:09:39;15.60;;;6.83;;
16624;SDS011;8426;48.496;9.098;2023-01-19T07:14:44;11.93;;;6.43;;
16624;SDS011;8426;48.496;9.098;2023-01-19T07:19:47;14.13;;;5.80;;
16624;SDS011;8426;48.496;9.098;2023-01-19T07:24:52;11.87;;;5.43;;
16624;SDS011;8426;48.496;9.098;2023-01-19T07:29:56;12.00;;;5.40;;
16624;SDS011;8426;48.496;9.098;2023-01-19T07:35:01;8.97;;;5.10;;
16624;SDS011;8426;48.496;9.098;2023-01-19T07:40:05;13.43;;;5.37;;
16624;SDS011;8426;48.496;9.098;2023-01-19T07:45:10;9.50;;;4.90;;
16624;SDS011;8426;48.496;9.098;2023-01-19T07:50:16;12.07;;;5.33;;
16624;SDS011;8426;48.496;9.098;2023-01-19T07:55:22;12.23;;;5.20;;
16624;SDS011;8426;48.496;9.098;2023-01-19T08:00:27;14.40;;;5.23;;
16624;SDS011;8426;48.496;9.098;2023-01-19T08:05:30;9.67;;;4.60;;
16624;SDS011;8426;48.496;9.098;2023-01-19T08:10:35;14.40;;;4.97;;
16624;SDS011;8426;48.496;9.098;2023-01-19T08:15:40;9.57;;;4.23;;
16624;SDS011;8426;48.496;9.098;2023-01-19T08:20:44;11.10;;;5.17;;
16624;SDS011;8426;48.496;9.098;2023-01-19T08:25:47;8.47;;;4.77;;
16624;SDS011;8426;48.496;9.098;2023-01-19T08:30:52;10.87;;;5.67;;
16624;SDS011;8426;48.496;9.098;2023-01-19T08:35:55;14.07;;;5.13;;
16624;SDS011;8426;48.496;9.098;2023-01-19T08:40:59;9.83;;;5.20;;
16624;SDS011;8426;48.496;9.098;2023-01-19T08:46:04;13.37;;;5.07;;
16624;SDS011;8426;48.496;9.098;2023-01-19T08:51:08;10.63;;;5.03;;
16624;SDS011;8426;48.496;9.098;2023-01-19T08:56:11;10.60;;;5.03;;
16624;SDS011;8426;48.496;9.098;2023-01-19T09:01:16;8.97;;;4.80;;
16624;SDS011;8426;48.496;9.098;2023-01-19T09:06:20;9.17;;;4.70;;
16624;SDS011;8426;48.496;9.098;2023-01-19T09:11:25;8.83;;;4.50;;
16624;SDS011;8426;48.496;9.098;2023-01-19T09:16:30;9.90;;;4.83;;
16624;SDS011;8426;48.496;9.098;2023-01-19T09:21:33;12.27;;;4.00;;
16624;SDS011;8426;48.496;9.098;2023-01-19T09:26:37;9.77;;;4.77;;
16624;SDS011;8426;48.496;9.098;2023-01-19T09:31:42;11.33;;;4.63;;
16624;SDS011;8426;48.496;9.098;2023-01-19T09:36:46;7.03;;;3.80;;
16624;SDS011;8426;48.496;9.098;2023-01-19T09:41:53;8.00;;;4.73;;
16624;SDS011;8426;48.496;9.098;2023-01-19T09:47:11;5.67;;;3.83;;
16624;SDS011;8426;48.496;9.098;2023-01-19T09:52:16;10.17;;;4.53;;
16624;SDS011;8426;48.496;9.098;2023-01-19T09:57:21;7.87;;;4.27;;
16624;SDS011;8426;48.496;9.098;2023-01-19T10:02:29;8.57;;;4.30;;
16624;SDS011;8426;48.496;9.098;2023-01-19T10:07:41;7.47;;;4.30;;
16624;SDS011;8426;48.496;9.098;2023-01-19T10:13:01;6.93;;;3.60;;
16624;SDS011;8426;48.496;9.098;2023-01-19T10:18:30;9.77;;;3.70;;
16624;SDS011;8426;48.496;9.098;2023-01-19T10:23:47;9.70;;;4.40;;
16624;SDS011;8426;48.496;9.098;2023-01-19T10:28:54;7.43;;;3.60;;
16624;SDS011;8426;48.496;9.098;2023-01-19T10:34:07;6.57;;;3.40;;
16624;SDS011;8426;48.496;9.098;2023-01-19T10:39:19;7.07;;;3.57;;
16624;SDS011;8426;48.496;9.098;2023-01-19T10:44:24;6.37;;;3.23;;
16624;SDS011;8426;48.496;9.098;2023-01-19T10:49:34;8.20;;;3.80;;
16624;SDS011;8426;48.496;9.098;2023-01-19T10:54:41;9.53;;;4.30;;
16624;SDS011;8426;48.496;9.098;2023-01-19T10:59:46;6.40;;;3.27;;
16624;SDS011;8426;48.496;9.098;2023-01-19T11:04:53;8.77;;;3.27;;
16624;SDS011;8426;48.496;9.098;2023-01-19T11:10:15;4.97;;;2.60;;
16624;SDS011;8426;48.496;9.098;2023-01-19T11:15:23;10.03;;;3.23;;
16624;SDS011;8426;48.496;9.098;2023-01-19T11:20:33;7.00;;;3.27;;
16624;SDS011;8426;48.496;9.098;2023-01-19T11:25:44;5.37;;;2.83;;
16624;SDS011;8426;48.496;9.098;2023-01-19T11:30:53;6.17;;;3.13;;
16624;SDS011;8426;48.496;9.098;2023-01-19T11:36:03;8.93;;;2.83;;
16624;SDS011;8426;48.496;9.098;2023-01-19T11:41:10;6.00;;;2.70;;
16624;SDS011;8426;48.496;9.098;2023-01-19T11:46:19;6.97;;;3.20;;
16624;SDS011;8426;48.496;9.098;2023-01-19T11:51:26;5.13;;;2.90;;
16624;SDS011;8426;48.496;9.098;2023-01-19T11:56:32;7.10;;;2.67;;
16624;SDS011;8426;48.496;9.098;2023-01-19T12:01:37;7.13;;;3.10;;
16624;SDS011;8426;48.496;9.098;2023-01-19T12:06:48;6.53;;;2.83;;
16624;SDS011;8426;48.496;9.098;2023-01-19T12:11:54;4.70;;;2.30;;
16624;SDS011;8426;48.496;9.098;2023-01-19T12:17:04;3.97;;;2.10;;
16624;SDS011;8426;48.496;9.098;2023-01-19T12:22:15;5.63;;;2.30;;
16624;SDS011;8426;48.496;9.098;2023-01-19T12:27:21;4.63;;;2.43;;
16624;SDS011;8426;48.496;9.098;2023-01-19T12:32:34;4.60;;;2.60;;
16624;SDS011;8426;48.496;9.098;2023-01-19T12:37:39;5.07;;;2.67;;
16624;SDS011;8426;48.496;9.098;2023-01-19T12:42:45;5.23;;;3.03;;
16624;SDS011;8426;48.496;9.098;2023-01-19T12:47:53;8.97;;;2.40;;
16624;SDS011;8426;48.496;9.098;2023-01-19T12:52:59;5.70;;;2.57;;
16624;SDS011;8426;48.496;9.098;2023-01-19T12:58:05;3.50;;;2.10;;
16624;SDS011;8426;48.496;9.098;2023-01-19T13:08:55;3.03;;;1.97;;
16624;SDS011;8426;48.496;9.098;2023-01-19T13:19:41;2.67;;;1.43;;
16624;SDS011;8426;48.496;9.098;2023-01-19T13:25:06;2.10;;;1.33;;
16624;SDS011;8426;48.496;9.098;2023-01-19T13:30:14;2.83;;;1.67;;
16624;SDS011;8426;48.496;9.098;2023-01-19T13:35:20;3.63;;;1.70;;
16624;SDS011;8426;48.496;9.098;2023-01-19T13:40:28;2.67;;;1.50;;
16624;SDS011;8426;48.496;9.098;2023-01-19T13:45:35;2.33;;;1.40;;
16624;SDS011;8426;48.496;9.098;2023-01-19T13:50:41;2.83;;;1.80;;
16624;SDS011;8426;48.496;9.098;2023-01-19T13:56:08;7.90;;;1.90;;
16624;SDS011;8426;48.496;9.098;2023-01-19T14:01:21;4.53;;;1.83;;
16624;SDS011;8426;48.496;9.098;2023-01-19T14:06:33;3.57;;;1.67;;
16624;SDS011;8426;48.496;9.098;2023-01-19T14:11:40;7.10;;;2.67;;
16624;SDS011;8426;48.496;9.098;2023-01-19T14:16:44;6.17;;;2.00;;
16624;SDS011;8426;48.496;9.098;2023-01-19T14:21:56;2.43;;;1.50;;
16624;SDS011;8426;48.496;9.098;2023-01-19T14:27:14;6.67;;;1.67;;
16624;SDS011;8426;48.496;9.098;2023-01-19T14:32:22;2.77;;;1.83;;
16624;SDS011;8426;48.496;9.098;2023-01-19T14:37:26;5.63;;;1.63;;
16624;SDS011;8426;48.496;9.098;2023-01-19T14:42:32;2.40;;;1.60;;
16624;SDS011;8426;48.496;9.098;2023-01-19T14:47:38;3.57;;;2.00;;
16624;SDS011;8426;48.496;9.098;2023-01-19T14:52:47;4.03;;;1.83;;
16624;SDS011;8426;48.496;9.098;2023-01-19T14:57:54;3.13;;;1.97;;
16624;SDS011;8426;48.496;9.098;2023-01-19T15:02:57;3.97;;;1.60;;
16624;SDS011;8426;48.496;9.098;2023-01-19T15:08:01;4.23;;;1.90;;
16624;SDS011;8426;48.496;9.098;2023-01-19T15:13:08;3.10;;;1.80;;
16624;SDS011;8426;48.496;9.098;2023-01-19T15:18:18;2.93;;;1.70;;
16624;SDS011;8426;48.496;9.098;2023-01-19T15:23:24;3.83;;;1.80;;
16624;SDS011;8426;48.496;9.098;2023-01-19T15:28:29;3.07;;;1.60;;
16624;SDS011;8426;48.496;9.098;2023-01-19T15:33:33;3.37;;;1.93;;
16624;SDS011;8426;48.496;9.098;2023-01-19T15:38:36;3.07;;;1.80;;
16624;SDS011;8426;48.496;9.098;2023-01-19T15:43:41;3.20;;;1.77;;
16624;SDS011;8426;48.496;9.098;2023-01-19T15:48:44;3.40;;;1.83;;
16624;SDS011;8426;48.496;9.098;2023-01-19T15:53:49;4.00;;;1.73;;
16624;SDS011;8426;48.496;9.098;2023-01-19T15:58:54;6.40;;;1.93;;
16624;SDS011;8426;48.496;9.098;2023-01-19T16:03:58;3.60;;;1.83;;
16624;SDS011;8426;48.496;9.098;2023-01-19T16:09:03;6.93;;;2.10;;
16624;SDS011;8426;48.496;9.098;2023-01-19T16:14:08;3.43;;;2.07;;
16624;SDS011;8426;48.496;9.098;2023-01-19T16:19:12;9.57;;;2.43;;
16624;SDS011;8426;48.496;9.098;2023-01-19T16:24:17;3.03;;;1.80;;
16624;SDS011;8426;48.496;9.098;2023-01-19T16:29:22;5.83;;;2.90;;
16624;SDS011;8426;48.496;9.098;2023-01-19T16:34:25;2.80;;;1.60;;
16624;SDS011;8426;48.496;9.098;2023-01-19T16:39:28;2.70;;;1.73;;
16624;SDS011;8426;48.496;9.098;2023-01-19T16:44:33;2.53;;;1.80;;
16624;SDS011;8426;48.496;9.098;2023-01-19T16:49:37;4.90;;;2.53;;
16624;SDS011;8426;48.496;9.098;2023-01-19T16:54:40;4.43;;;2.83;;
16624;SDS011;8426;48.496;9.098;2023-01-19T16:59:45;5.00;;;2.43;;
16624;SDS011;8426;48.496;9.098;2023-01-19T17:04:50;6.03;;;2.77;;
16624;SDS011;8426;48.496;9.098;2023-01-19T17:09:55;5.30;;;2.77;;
16624;SDS011;8426;48.496;9.098;2023-01-19T17:15:00;5.40;;;3.20;;
16624;SDS011;8426;48.496;9.098;2023-01-19T17:20:04;15.57;;;3.93;;
16624;SDS011;8426;48.496;9.098;2023-01-19T17:25:08;11.77;;;4.50;;
16624;SDS011;8426;48.496;9.098;2023-01-19T17:30:13;10.50;;;4.90;;
16624;SDS011;8426;48.496;9.098;2023-01-19T17:35:16;9.33;;;4.50;;
16624;SDS011;8426;48.496;9.098;2023-01-19T17:40:20;8.60;;;4.13;;
16624;SDS011;8426;48.496;9.098;2023-01-19T17:45:27;9.83;;;4.73;;
16624;SDS011;8426;48.496;9.098;2023-01-19T17:50:31;9.53;;;4.87;;
16624;SDS011;8426;48.496;9.098;2023-01-19T17:55:35;10.30;;;5.13;;
16624;SDS011;8426;48.496;9.098;2023-01-19T18:00:40;11.93;;;4.87;;
16624;SDS011;8426;48.496;9.098;2023-01-19T18:05:51;11.13;;;5.00;;
16624;SDS011;8426;48.496;9.098;2023-01-19T18:10:55;12.77;;;5.33;;
16624;SDS011;8426;48.496;9.098;2023-01-19T18:16:01;12.77;;;5.93;;
16624;SDS011;8426;48.496;9.098;2023-01-19T18:21:07;12.60;;;6.03;;
16624;SDS011;8426;48.496;9.098;2023-01-19T18:26:13;14.73;;;6.07;;
16624;SDS011;8426;48.496;9.098;2023-01-19T18:31:21;13.87;;;6.40;;
16624;SDS011;8426;48.496;9.098;2023-01-19T18:36:24;13.87;;;5.90;;
16624;SDS011;8426;48.496;9.098;2023-01-19T18:41:27;13.10;;;6.57;;
16624;SDS011;8426;48.496;9.098;2023-01-19T18:46:32;14.90;;;5.77;;
16624;SDS011;8426;48.496;9.098;2023-01-19T18:51:36;11.10;;;5.70;;
16624;SDS011;8426;48.496;9.098;2023-01-19T18:56:40;10.83;;;5.70;;
16624;SDS011;8426;48.496;9.098;2023-01-19T19:01:45;11.30;;;5.73;;
16624;SDS011;8426;48.496;9.098;2023-01-19T19:06:49;11.97;;;6.00;;
16624;SDS011;8426;48.496;9.098;2023-01-19T19:11:52;12.43;;;6.33;;
16624;SDS011;8426;48.496;9.098;2023-01-19T19:16:57;13.27;;;6.47;;
16624;SDS011;8426;48.496;9.098;2023-01-19T19:22:00;12.70;;;6.17;;
16624;SDS011;8426;48.496;9.098;2023-01-19T19:27:05;14.17;;;5.97;;
16624;SDS011;8426;48.496;9.098;2023-01-19T19:32:15;10.43;;;5.63;;
16624;SDS011;8426;48.496;9.098;2023-01-19T19:37:20;11.10;;;5.33;;
16624;SDS011;8426;48.496;9.098;2023-01-19T19:42:24;16.87;;;7.93;;
16624;SDS011;8426;48.496;9.098;2023-01-19T19:47:30;13.17;;;5.57;;
16624;SDS011;8426;48.496;9.098;2023-01-19T19:52:36;10.03;;;4.83;;
16624;SDS011;8426;48.496;9.098;2023-01-19T19:57:40;9.27;;;5.20;;
16624;SDS011;8426;48.496;9.098;2023-01-19T20:02:45;11.00;;;6.00;;
16624;SDS011;8426;48.496;9.098;2023-01-19T20:07:52;21.87;;;10.90;;
16624;SDS011;8426;48.496;9.098;2023-01-19T20:12:55;20.93;;;9.40;;
16624;SDS011;8426;48.496;9.098;2023-01-19T20:17:59;19.40;;;8.87;;
16624;SDS011;8426;48.496;9.098;2023-01-19T20:23:03;21.47;;;8.90;;
16624;SDS011;8426;48.496;9.098;2023-01-19T20:28:06;20.63;;;9.13;;
16624;SDS011;8426;48.496;9.098;2023-01-19T20:33:11;17.37;;;7.67;;
16624;SDS011;8426;48.496;9.098;2023-01-19T20:38:14;21.53;;;9.00;;
16624;SDS011;8426;48.496;9.098;2023-01-19T20:43:17;29.03;;;11.87;;
16624;SDS011;8426;48.496;9.098;2023-01-19T20:48:22;24.70;;;11.13;;
16624;SDS011;8426;48.496;9.098;2023-01-19T20:53:26;19.03;;;9.37;;
16624;SDS011;8426;48.496;9.098;2023-01-19T20:58:30;21.00;;;9.90;;
16624;SDS011;8426;48.496;9.098;2023-01-19T21:03:35;14.70;;;7.73;;
16624;SDS011;8426;48.496;9.098;2023-01-19T21:08:39;16.00;;;7.17;;
16624;SDS011;8426;48.496;9.098;2023-01-19T21:14:00;16.83;;;7.37;;
16624;SDS011;8426;48.496;9.098;2023-01-19T21:19:05;14.47;;;6.67;;
16624;SDS011;8426;48.496;9.098;2023-01-19T21:24:08;22.47;;;7.87;;
16624;SDS011;8426;48.496;9.098;2023-01-19T21:29:13;15.57;;;7.13;;
16624;SDS011;8426;48.496;9.098;2023-01-19T21:34:18;14.97;;;5.87;;
16624;SDS011;8426;48.496;9.098;2023-01-19T21:39:22;18.60;;;6.20;;
16624;SDS011;8426;48.496;9.098;2023-01-19T21:44:26;15.13;;;5.80;;
16624;SDS011;8426;48.496;9.098;2023-01-19T21:49:30;12.10;;;5.60;;
16624;SDS011;8426;48.496;9.098;2023-01-19T21:54:34;12.17;;;5.40;;
16624;SDS011;8426;48.496;9.098;2023-01-19T21:59:37;14.03;;;6.63;;
16624;SDS011;8426;48.496;9.098;2023-01-19T22:04:41;16.50;;;6.70;;
16624;SDS011;8426;48.496;9.098;2023-01-19T22:09:45;11.67;;;5.73;;
16624;SDS011;8426;48.496;9.098;2023-01-19T22:14:48;12.00;;;6.00;;
16624;SDS011;8426;48.496;9.098;2023-01-19T22:19:54;13.83;;;5.53;;
16624;SDS011;8426;48.496;9.098;2023-01-19T22:24:57;13.33;;;5.20;;
16624;SDS011;8426;48.496;9.098;2023-01-19T22:30:00;12.53;;;5.27;;
16624;SDS011;8426;48.496;9.098;2023-01-19T22:35:05;12.80;;;6.10;;
16624;SDS011;8426;48.496;9.098;2023-01-19T22:40:09;10.57;;;5.53;;
16624;SDS011;8426;48.496;9.098;2023-01-19T22:45:13;13.10;;;5.53;;
16624;SDS011;8426;48.496;9.098;2023-01-19T22:50:18;9.70;;;5.60;;
16624;SDS011;8426;48.496;9.098;2023-01-19T22:55:22;12.80;;;6.30;;
16624;SDS011;8426;48.496;9.098;2023-01-19T23:00:25;13.10;;;6.03;;
16624;SDS011;8426;48.496;9.098;2023-01-19T23:05:30;13.53;;;5.93;;
16624;SDS011;8426;48.496;9.098;2023-01-19T23:10:37;12.10;;;6.30;;
16624;SDS011;8426;48.496;9.098;2023-01-19T23:15:41;12.97;;;5.73;;
16624;SDS011;8426;48.496;9.098;2023-01-19T23:20:45;9.77;;;5.60;;
16624;SDS011;8426;48.496;9.098;2023-01-19T23:25:49;15.10;;;6.00;;
16624;SDS011;8426;48.496;9.098;2023-01-19T23:30:52;11.50;;;6.17;;
16624;SDS011;8426;48.496;9.098;2023-01-19T23:35:57;13.07;;;4.67;;
16624;SDS011;8426;48.496;9.098;2023-01-19T23:41:01;13.30;;;5.30;;
16624;SDS011;8426;48.496;9.098;2023-01-19T23:46:06;12.10;;;5.67;;
16624;SDS011;8426;48.496;9.098;2023-01-19T23:51:12;10.50;;;5.73;;
16624;SDS011;8426;48.496;9.098;2023-01-19T23:56:18;14.37;;;6.20;;
